sensor_id;sensor_type;location;lat;lon;timestamp;P1;durP1;ratioP1;P2;durP2;ratioP2
25649;SDS011;13505;45.196;5.696;2024-01-15T05:30:44;44.45;;;22.10;;
25649;SDS011;13505;45.196;5.696;2024-01-15T05:35:35;56.35;;;25.02;;
25649;SDS011;13505;45.196;5.696;2024-01-15T05:40:26;51.85;;;25.27;;
25649;SDS011;13505;45.196;5.696;2024-01-15T05:45:16;57.47;;;27.60;;
25649;SDS011;13505;45.196;5.696;2024-01-15T05:50:07;58.72;;;28.17;;
25649;SDS011;13505;45.196;5.696;2024-01-15T05:54:58;60.50;;;27.88;;
25649;SDS011;13505;45.196;5.696;2024-01-15T05:59:49;57.78;;;28.25;;
25649;SDS011;13505;45.196;5.696;2024-01-15T06:04:39;64.88;;;28.95;;
25649;SDS011;13505;45.196;5.696;2024-01-15T06:09:30;61.05;;;28.52;;
25649;SDS011;13505;45.196;5.696;2024-01-15T06:14:21;61.38;;;27.63;;
25649;SDS011;13505;45.196;5.696;2024-01-15T06:19:11;62.17;;;28.65;;
25649;SDS011;13505;45.196;5.696;2024-01-15T06:24:02;59.33;;;28.55;;
25649;SDS011;13505;45.196;5.696;2024-01-15T06:28:52;57.63;;;29.77;;
25649;SDS011;13505;45.196;5.696;2024-01-15T06:33:43;54.80;;;26.35;;
25649;SDS011;13505;45.196;5.696;2024-01-15T06:38:34;58.22;;;26.90;;
25649;SDS011;13505;45.196;5.696;2024-01-15T06:43:25;54.22;;;24.95;;
25649;SDS011;13505;45.196;5.696;2024-01-15T06:48:15;53.53;;;26.45;;
25649;SDS011;13505;45.196;5.696;2024-01-15T06:53:06;55.58;;;27.48;;
25649;SDS011;13505;45.196;5.696;2024-01-15T06:57:56;54.08;;;24.40;;
25649;SDS011;13505;45.196;5.696;2024-01-15T07:02:47;51.22;;;24.85;;
25649;SDS011;13505;45.196;5.696;2024-01-15T07:07:37;48.30;;;22.90;;
25649;SDS011;13505;45.196;5.696;2024-01-15T07:12:28;50.78;;;25.15;;
25649;SDS011;13505;45.196;5.696;2024-01-15T07:17:18;43.30;;;22.77;;
25649;SDS011;13505;45.196;5.696;2024-01-15T07:22:08;46.33;;;22.65;;
25649;SDS011;13505;45.196;5.696;2024-01-15T07:26:59;50.67;;;22.95;;
25649;SDS011;13505;45.196;5.696;2024-01-15T07:31:50;46.42;;;22.85;;
25649;SDS011;13505;45.196;5.696;2024-01-15T07:36:41;50.35;;;24.77;;
25649;SDS011;13505;45.196;5.696;2024-01-15T07:41:31;47.67;;;22.92;;
25649;SDS011;13505;45.196;5.696;2024-01-15T07:46:22;52.70;;;26.05;;
25649;SDS011;13505;45.196;5.696;2024-01-15T07:51:12;53.47;;;24.95;;
25649;SDS011;13505;45.196;5.696;2024-01-15T07:56:02;53.33;;;26.45;;
25649;SDS011;13505;45.196;5.696;2024-01-15T08:00:53;58.05;;;27.05;;
25649;SDS011;13505;45.196;5.696;2024-01-15T08:05:43;50.80;;;26.25;;
25649;SDS011;13505;45.196;5.696;2024-01-15T08:10:33;52.15;;;25.00;;
25649;SDS011;13505;45.196;5.696;2024-01-15T08:15:24;57.08;;;26.08;;
25649;SDS011;13505;45.196;5.696;2024-01-15T08:20:14;48.55;;;23.45;;
25649;SDS011;13505;45.196;5.696;2024-01-15T08:25:06;47.92;;;22.70;;
25649;SDS011;13505;45.196;5.696;2024-01-15T08:29:56;49.58;;;24.17;;
25649;SDS011;13505;45.196;5.696;2024-01-15T08:34:47;55.95;;;25.80;;
25649;SDS011;13505;45.196;5.696;2024-01-15T08:39:39;54.28;;;25.85;;
25649;SDS011;13505;45.196;5.696;2024-01-15T08:44:29;60.22;;;26.05;;
25649;SDS011;13505;45.196;5.696;2024-01-15T08:49:19;69.47;;;27.58;;
25649;SDS011;13505;45.196;5.696;2024-01-15T08:54:10;66.30;;;26.52;;
25649;SDS011;13505;45.196;5.696;2024-01-15T08:59:00;60.03;;;27.00;;
25649;SDS011;13505;45.196;5.696;2024-01-15T09:03:51;54.38;;;26.77;;
25649;SDS011;13505;45.196;5.696;2024-01-15T09:08:41;60.55;;;27.42;;
25649;SDS011;13505;45.196;5.696;2024-01-15T09:13:32;55.30;;;25.20;;
25649;SDS011;13505;45.196;5.696;2024-01-15T09:18:22;63.65;;;26.15;;
25649;SDS011;13505;45.196;5.696;2024-01-15T09:23:12;58.60;;;25.98;;
25649;SDS011;13505;45.196;5.696;2024-01-15T09:28:03;53.45;;;25.15;;
25649;SDS011;13505;45.196;5.696;2024-01-15T09:32:53;50.97;;;24.65;;
25649;SDS011;13505;45.196;5.696;2024-01-15T09:37:44;47.90;;;22.75;;
25649;SDS011;13505;45.196;5.696;2024-01-15T09:42:35;56.28;;;24.15;;
25649;SDS011;13505;45.196;5.696;2024-01-15T09:47:26;56.78;;;27.80;;
25649;SDS011;13505;45.196;5.696;2024-01-15T09:52:16;49.60;;;22.40;;
25649;SDS011;13505;45.196;5.696;2024-01-15T09:57:09;44.47;;;22.05;;
25649;SDS011;13505;45.196;5.696;2024-01-15T10:01:59;51.47;;;23.30;;
25649;SDS011;13505;45.196;5.696;2024-01-15T10:06:55;48.58;;;22.83;;
25649;SDS011;13505;45.196;5.696;2024-01-15T10:11:47;42.53;;;21.63;;
25649;SDS011;13505;45.196;5.696;2024-01-15T10:16:41;46.28;;;22.73;;
25649;SDS011;13505;45.196;5.696;2024-01-15T10:21:32;46.88;;;23.25;;
25649;SDS011;13505;45.196;5.696;2024-01-15T10:26:26;42.83;;;22.05;;
25649;SDS011;13505;45.196;5.696;2024-01-15T10:31:16;49.22;;;24.17;;
25649;SDS011;13505;45.196;5.696;2024-01-15T10:36:09;59.47;;;28.02;;
25649;SDS011;13505;45.196;5.696;2024-01-15T10:41:00;45.58;;;21.70;;
25649;SDS011;13505;45.196;5.696;2024-01-15T10:45:50;44.78;;;21.95;;
25649;SDS011;13505;45.196;5.696;2024-01-15T10:50:41;44.78;;;22.55;;
25649;SDS011;13505;45.196;5.696;2024-01-15T10:55:32;42.90;;;21.23;;
25649;SDS011;13505;45.196;5.696;2024-01-15T11:00:25;47.03;;;21.33;;
25649;SDS011;13505;45.196;5.696;2024-01-15T11:05:16;41.65;;;20.80;;
25649;SDS011;13505;45.196;5.696;2024-01-15T11:10:08;46.60;;;23.88;;
25649;SDS011;13505;45.196;5.696;2024-01-15T11:15:54;50.80;;;24.60;;
25649;SDS011;13505;45.196;5.696;2024-01-15T11:26:03;51.05;;;22.77;;
25649;SDS011;13505;45.196;5.696;2024-01-15T11:31:19;58.42;;;27.00;;
25649;SDS011;13505;45.196;5.696;2024-01-15T11:36:09;55.20;;;28.00;;
25649;SDS011;13505;45.196;5.696;2024-01-15T11:41:01;62.78;;;27.33;;
25649;SDS011;13505;45.196;5.696;2024-01-15T11:46:11;55.33;;;26.88;;
25649;SDS011;13505;45.196;5.696;2024-01-15T11:51:02;59.08;;;27.40;;
25649;SDS011;13505;45.196;5.696;2024-01-15T11:55:53;48.50;;;24.98;;
25649;SDS011;13505;45.196;5.696;2024-01-15T12:00:48;44.38;;;23.83;;
25649;SDS011;13505;45.196;5.696;2024-01-15T12:05:40;48.50;;;21.30;;
25649;SDS011;13505;45.196;5.696;2024-01-15T12:10:33;45.60;;;20.55;;
25649;SDS011;13505;45.196;5.696;2024-01-15T12:15:24;44.08;;;20.48;;
25649;SDS011;13505;45.196;5.696;2024-01-15T12:20:15;53.95;;;24.52;;
25649;SDS011;13505;45.196;5.696;2024-01-15T12:25:08;43.35;;;20.15;;
25649;SDS011;13505;45.196;5.696;2024-01-15T12:29:58;32.28;;;19.48;;
25649;SDS011;13505;45.196;5.696;2024-01-15T12:34:49;35.65;;;19.25;;
25649;SDS011;13505;45.196;5.696;2024-01-15T12:39:42;44.22;;;21.05;;
25649;SDS011;13505;45.196;5.696;2024-01-15T12:44:33;50.45;;;23.42;;
25649;SDS011;13505;45.196;5.696;2024-01-15T12:49:24;46.20;;;23.45;;
25649;SDS011;13505;45.196;5.696;2024-01-15T12:54:14;53.00;;;26.63;;
25649;SDS011;13505;45.196;5.696;2024-01-15T12:59:05;51.80;;;26.00;;
25649;SDS011;13505;45.196;5.696;2024-01-15T13:03:55;54.45;;;26.60;;
25649;SDS011;13505;45.196;5.696;2024-01-15T13:08:45;49.47;;;25.92;;
25649;SDS011;13505;45.196;5.696;2024-01-15T13:13:36;46.17;;;24.48;;
25649;SDS011;13505;45.196;5.696;2024-01-15T13:18:27;43.35;;;24.52;;
25649;SDS011;13505;45.196;5.696;2024-01-15T13:23:18;43.38;;;22.67;;
25649;SDS011;13505;45.196;5.696;2024-01-15T13:28:08;48.58;;;23.27;;
25649;SDS011;13505;45.196;5.696;2024-01-15T13:32:58;52.63;;;24.05;;
25649;SDS011;13505;45.196;5.696;2024-01-15T13:37:53;49.00;;;23.17;;
25649;SDS011;13505;45.196;5.696;2024-01-15T13:42:44;41.45;;;20.35;;
25649;SDS011;13505;45.196;5.696;2024-01-15T13:47:35;45.95;;;20.45;;
25649;SDS011;13505;45.196;5.696;2024-01-15T13:52:27;42.22;;;20.52;;
25649;SDS011;13505;45.196;5.696;2024-01-15T13:57:18;39.03;;;19.75;;
25649;SDS011;13505;45.196;5.696;2024-01-15T14:02:09;42.08;;;20.33;;
25649;SDS011;13505;45.196;5.696;2024-01-15T14:06:59;43.60;;;21.38;;
25649;SDS011;13505;45.196;5.696;2024-01-15T14:11:52;39.33;;;20.77;;
25649;SDS011;13505;45.196;5.696;2024-01-15T14:16:43;44.83;;;21.77;;
25649;SDS011;13505;45.196;5.696;2024-01-15T14:21:33;40.72;;;21.85;;
25649;SDS011;13505;45.196;5.696;2024-01-15T14:26:24;41.40;;;20.90;;
25649;SDS011;13505;45.196;5.696;2024-01-15T14:31:14;34.60;;;18.60;;
25649;SDS011;13505;45.196;5.696;2024-01-15T14:36:04;35.13;;;17.88;;
25649;SDS011;13505;45.196;5.696;2024-01-15T14:40:55;26.35;;;14.85;;
25649;SDS011;13505;45.196;5.696;2024-01-15T14:45:47;23.45;;;13.13;;
25649;SDS011;13505;45.196;5.696;2024-01-15T14:50:37;26.73;;;13.32;;
25649;SDS011;13505;45.196;5.696;2024-01-15T14:55:27;32.25;;;13.88;;
25649;SDS011;13505;45.196;5.696;2024-01-15T15:00:18;27.08;;;14.40;;
25649;SDS011;13505;45.196;5.696;2024-01-15T15:05:08;29.58;;;14.13;;
25649;SDS011;13505;45.196;5.696;2024-01-15T15:10:00;25.15;;;15.18;;
25649;SDS011;13505;45.196;5.696;2024-01-15T15:14:50;30.10;;;15.38;;
25649;SDS011;13505;45.196;5.696;2024-01-15T15:19:41;31.13;;;16.73;;
25649;SDS011;13505;45.196;5.696;2024-01-15T15:24:31;35.28;;;15.68;;
25649;SDS011;13505;45.196;5.696;2024-01-15T15:29:22;33.42;;;18.08;;
25649;SDS011;13505;45.196;5.696;2024-01-15T15:34:14;37.65;;;20.13;;
25649;SDS011;13505;45.196;5.696;2024-01-15T15:39:05;35.20;;;19.15;;
25649;SDS011;13505;45.196;5.696;2024-01-15T15:43:56;61.13;;;27.20;;
25649;SDS011;13505;45.196;5.696;2024-01-15T15:48:46;39.75;;;20.88;;
25649;SDS011;13505;45.196;5.696;2024-01-15T15:53:36;31.63;;;16.60;;
25649;SDS011;13505;45.196;5.696;2024-01-15T15:58:27;32.38;;;16.95;;
25649;SDS011;13505;45.196;5.696;2024-01-15T16:03:18;31.40;;;17.48;;
25649;SDS011;13505;45.196;5.696;2024-01-15T16:08:09;33.35;;;18.70;;
25649;SDS011;13505;45.196;5.696;2024-01-15T16:13:01;41.55;;;19.25;;
25649;SDS011;13505;45.196;5.696;2024-01-15T16:17:52;42.50;;;19.80;;
25649;SDS011;13505;45.196;5.696;2024-01-15T16:22:42;41.67;;;20.15;;
25649;SDS011;13505;45.196;5.696;2024-01-15T16:27:33;37.47;;;18.30;;
25649;SDS011;13505;45.196;5.696;2024-01-15T16:32:23;33.53;;;18.52;;
25649;SDS011;13505;45.196;5.696;2024-01-15T16:37:14;36.97;;;17.95;;
25649;SDS011;13505;45.196;5.696;2024-01-15T16:42:04;31.08;;;17.48;;
25649;SDS011;13505;45.196;5.696;2024-01-15T16:46:55;33.92;;;17.63;;
25649;SDS011;13505;45.196;5.696;2024-01-15T16:51:49;39.17;;;21.67;;
25649;SDS011;13505;45.196;5.696;2024-01-15T16:56:43;40.45;;;20.98;;
25649;SDS011;13505;45.196;5.696;2024-01-15T17:01:33;31.55;;;17.17;;
25649;SDS011;13505;45.196;5.696;2024-01-15T17:06:24;29.90;;;17.15;;
25649;SDS011;13505;45.196;5.696;2024-01-15T17:11:14;36.92;;;19.10;;
25649;SDS011;13505;45.196;5.696;2024-01-15T17:16:05;40.80;;;20.10;;
25649;SDS011;13505;45.196;5.696;2024-01-15T17:20:55;39.28;;;20.45;;
25649;SDS011;13505;45.196;5.696;2024-01-15T17:25:47;41.42;;;21.17;;
25649;SDS011;13505;45.196;5.696;2024-01-15T17:35:52;43.78;;;20.00;;
25649;SDS011;13505;45.196;5.696;2024-01-15T17:40:43;34.55;;;18.70;;
25649;SDS011;13505;45.196;5.696;2024-01-15T17:45:33;35.47;;;19.75;;
25649;SDS011;13505;45.196;5.696;2024-01-15T17:50:23;46.35;;;20.40;;
25649;SDS011;13505;45.196;5.696;2024-01-15T17:55:14;40.58;;;20.40;;
25649;SDS011;13505;45.196;5.696;2024-01-15T18:00:04;37.45;;;20.35;;
25649;SDS011;13505;45.196;5.696;2024-01-15T18:04:57;40.72;;;21.05;;
25649;SDS011;13505;45.196;5.696;2024-01-15T18:09:47;39.00;;;21.85;;
25649;SDS011;13505;45.196;5.696;2024-01-15T18:14:37;43.22;;;22.20;;
25649;SDS011;13505;45.196;5.696;2024-01-15T18:19:28;50.55;;;24.95;;
25649;SDS011;13505;45.196;5.696;2024-01-15T18:24:19;47.75;;;24.35;;
25649;SDS011;13505;45.196;5.696;2024-01-15T18:29:11;42.65;;;23.00;;
25649;SDS011;13505;45.196;5.696;2024-01-15T18:34:23;40.53;;;21.20;;
25649;SDS011;13505;45.196;5.696;2024-01-15T18:39:14;42.40;;;21.90;;
25649;SDS011;13505;45.196;5.696;2024-01-15T18:44:06;48.63;;;25.98;;
25649;SDS011;13505;45.196;5.696;2024-01-15T18:48:57;44.70;;;24.35;;
25649;SDS011;13505;45.196;5.696;2024-01-15T18:53:47;39.60;;;20.95;;
25649;SDS011;13505;45.196;5.696;2024-01-15T18:58:38;43.65;;;22.60;;
25649;SDS011;13505;45.196;5.696;2024-01-15T19:03:32;37.10;;;20.35;;
25649;SDS011;13505;45.196;5.696;2024-01-15T19:08:22;27.95;;;15.10;;
25649;SDS011;13505;45.196;5.696;2024-01-15T19:13:12;25.38;;;13.82;;
25649;SDS011;13505;45.196;5.696;2024-01-15T19:18:03;21.58;;;12.15;;
25649;SDS011;13505;45.196;5.696;2024-01-15T19:22:53;18.88;;;10.32;;
25649;SDS011;13505;45.196;5.696;2024-01-15T19:27:44;20.05;;;10.82;;
25649;SDS011;13505;45.196;5.696;2024-01-15T19:32:36;22.08;;;13.07;;
25649;SDS011;13505;45.196;5.696;2024-01-15T19:37:27;22.30;;;11.98;;
25649;SDS011;13505;45.196;5.696;2024-01-15T19:42:18;22.80;;;11.90;;
25649;SDS011;13505;45.196;5.696;2024-01-15T19:47:08;21.88;;;12.32;;
25649;SDS011;13505;45.196;5.696;2024-01-15T19:51:59;26.33;;;14.48;;
25649;SDS011;13505;45.196;5.696;2024-01-15T19:56:49;26.35;;;13.32;;
25649;SDS011;13505;45.196;5.696;2024-01-15T20:01:39;23.73;;;13.35;;
25649;SDS011;13505;45.196;5.696;2024-01-15T20:06:30;23.60;;;11.98;;
25649;SDS011;13505;45.196;5.696;2024-01-15T20:11:20;18.85;;;10.45;;
25649;SDS011;13505;45.196;5.696;2024-01-15T20:16:12;20.63;;;11.57;;
25649;SDS011;13505;45.196;5.696;2024-01-15T20:21:04;20.83;;;11.75;;
25649;SDS011;13505;45.196;5.696;2024-01-15T20:26:08;20.40;;;11.02;;
25649;SDS011;13505;45.196;5.696;2024-01-15T20:31:00;24.65;;;11.98;;
25649;SDS011;13505;45.196;5.696;2024-01-15T20:36:00;21.83;;;12.57;;
25649;SDS011;13505;45.196;5.696;2024-01-15T20:40:51;22.02;;;11.82;;
25649;SDS011;13505;45.196;5.696;2024-01-15T20:45:41;23.83;;;12.68;;
25649;SDS011;13505;45.196;5.696;2024-01-15T20:50:40;21.30;;;11.63;;
25649;SDS011;13505;45.196;5.696;2024-01-15T20:55:49;29.73;;;13.13;;
25649;SDS011;13505;45.196;5.696;2024-01-15T21:00:48;24.25;;;12.48;;
25649;SDS011;13505;45.196;5.696;2024-01-15T21:05:39;21.05;;;11.40;;
25649;SDS011;13505;45.196;5.696;2024-01-15T21:10:29;19.98;;;10.85;;
25649;SDS011;13505;45.196;5.696;2024-01-15T21:15:20;21.35;;;10.55;;
25649;SDS011;13505;45.196;5.696;2024-01-15T21:20:10;19.88;;;9.90;;
25649;SDS011;13505;45.196;5.696;2024-01-15T21:25:01;20.90;;;11.73;;
25649;SDS011;13505;45.196;5.696;2024-01-15T21:29:53;17.67;;;10.02;;
25649;SDS011;13505;45.196;5.696;2024-01-15T21:34:43;20.58;;;10.48;;
25649;SDS011;13505;45.196;5.696;2024-01-15T21:39:33;13.13;;;7.60;;
25649;SDS011;13505;45.196;5.696;2024-01-15T21:44:24;13.32;;;7.63;;
25649;SDS011;13505;45.196;5.696;2024-01-15T21:49:14;12.48;;;7.53;;
25649;SDS011;13505;45.196;5.696;2024-01-15T21:54:04;19.23;;;10.23;;
25649;SDS011;13505;45.196;5.696;2024-01-15T21:58:55;12.32;;;7.10;;
25649;SDS011;13505;45.196;5.696;2024-01-15T22:03:46;11.00;;;6.95;;
25649;SDS011;13505;45.196;5.696;2024-01-15T22:08:36;12.38;;;7.22;;
25649;SDS011;13505;45.196;5.696;2024-01-15T22:13:26;10.68;;;6.80;;
25649;SDS011;13505;45.196;5.696;2024-01-15T22:18:17;13.63;;;6.72;;
25649;SDS011;13505;45.196;5.696;2024-01-15T22:23:07;10.10;;;6.43;;
25649;SDS011;13505;45.196;5.696;2024-01-15T22:27:59;11.77;;;6.43;;
25649;SDS011;13505;45.196;5.696;2024-01-15T22:32:49;9.85;;;5.95;;
25649;SDS011;13505;45.196;5.696;2024-01-15T22:37:40;10.50;;;6.10;;
25649;SDS011;13505;45.196;5.696;2024-01-15T22:42:30;9.95;;;5.95;;
25649;SDS011;13505;45.196;5.696;2024-01-15T22:47:21;9.40;;;5.47;;
25649;SDS011;13505;45.196;5.696;2024-01-15T22:52:12;13.32;;;5.30;;
25649;SDS011;13505;45.196;5.696;2024-01-15T22:57:03;7.50;;;5.28;;
